createdAt,value
2023-01-04T00:01:01.210Z,101141.50
2023-01-04T00:05:06.587Z,101131.50
2023-01-04T00:09:09.951Z,101132.91
2023-01-04T00:13:13.432Z,101129.97
2023-01-04T00:17:16.818Z,101128.38
2023-01-04T00:21:23.115Z,101145.94
2023-01-04T00:25:26.630Z,101125.31
2023-01-04T00:29:30.043Z,101109.94
2023-01-04T00:33:33.845Z,101110.22
2023-01-04T00:37:38.712Z,101098.97
2023-01-04T00:42:00.910Z,101115.88
2023-01-04T00:46:07.063Z,101113.91
2023-01-04T00:50:10.879Z,101123.09
2023-01-04T00:54:17.103Z,101118.75
2023-01-04T00:58:20.530Z,101103.38
2023-01-04T01:02:24.281Z,101101.78
2023-01-04T01:06:29.040Z,101091.41
2023-01-04T01:10:35.828Z,101089.22
2023-01-04T01:14:39.331Z,101071.91
2023-01-04T01:18:45.237Z,101074.56
2023-01-04T01:22:48.641Z,101072.22
2023-01-04T01:26:53.616Z,101068.50
2023-01-04T01:31:02.450Z,101078.28
2023-01-04T01:35:10.475Z,101059.66
2023-01-04T01:39:13.615Z,101069.81
2023-01-04T01:43:23.483Z,101058.84
2023-01-04T01:47:29.472Z,101049.59
2023-01-04T01:51:33.539Z,101065.34
2023-01-04T01:56:06.934Z,101068.38
2023-01-04T02:00:14.974Z,101072.16
2023-01-04T02:04:18.790Z,101072.34
2023-01-04T02:08:25.515Z,101082.97
2023-01-04T02:12:28.984Z,101056.75
2023-01-04T02:16:44.527Z,101051.28
2023-01-04T02:20:53.536Z,101047.56
2023-01-04T02:25:23.248Z,101050.56
2023-01-04T02:29:52.996Z,101040.69
2023-01-04T02:34:05.992Z,101022.22
2023-01-04T02:38:16.421Z,101013.50
2023-01-04T02:42:49.214Z,101014.41
2023-01-04T02:46:57.197Z,100995.91
2023-01-04T02:51:01.224Z,100977.41
2023-01-04T02:55:08.087Z,100969.22
2023-01-04T02:59:31.262Z,100969.09
2023-01-04T03:04:00.282Z,100973.06
2023-01-04T03:08:13.328Z,100954.38
2023-01-04T03:12:35.958Z,100969.84
2023-01-04T03:16:43.492Z,100949.00
2023-01-04T03:20:49.776Z,100946.72
2023-01-04T03:25:13.554Z,100953.22
2023-01-04T03:29:38.058Z,100937.63
2023-01-04T03:33:58.570Z,100939.94
2023-01-04T03:38:27.545Z,100937.16
2023-01-04T03:42:59.314Z,100953.72
2023-01-04T03:47:25.465Z,100961.97
2023-01-04T03:51:33.122Z,100934.97
2023-01-04T03:55:39.036Z,100939.97
2023-01-04T03:59:49.363Z,100942.28
2023-01-04T04:04:10.191Z,100929.00
2023-01-04T04:08:29.067Z,100911.13
2023-01-04T04:12:32.195Z,100914.66
2023-01-04T04:16:36.658Z,100916.16
2023-01-04T04:20:46.924Z,100911.91
2023-01-04T04:24:50.306Z,100916.09
2023-01-04T04:28:53.720Z,100927.84
2023-01-04T04:32:58.848Z,100916.50
2023-01-04T04:37:02.473Z,100893.16
2023-01-04T04:41:27.255Z,100884.59
2023-01-04T04:45:30.750Z,100907.53
2023-01-04T04:49:35.561Z,100872.03
2023-01-04T04:53:39.011Z,100880.88
2023-01-04T04:57:42.095Z,100855.22
2023-01-04T05:01:45.279Z,100850.63
2023-01-04T05:05:49.767Z,100845.16
2023-01-04T05:09:53.126Z,100888.09
2023-01-04T05:13:56.261Z,100843.69
2023-01-04T05:17:59.290Z,100838.03
2023-01-04T05:22:04.885Z,100831.69
2023-01-04T05:26:08.198Z,100842.22
2023-01-04T05:30:31.363Z,100805.81
2023-01-04T05:34:34.498Z,100823.28
2023-01-04T05:38:38.949Z,100833.00
2023-01-04T05:42:41.997Z,100822.50
2023-01-04T05:46:45.368Z,100810.72
2023-01-04T05:50:49.110Z,100791.75
2023-01-04T05:54:53.533Z,100806.94
2023-01-04T05:59:08.014Z,100818.75
2023-01-04T06:03:11.657Z,100796.44
2023-01-04T06:07:15.899Z,100813.47
2023-01-04T06:11:27.184Z,100800.63
2023-01-04T06:15:30.979Z,100799.38
2023-01-04T06:19:34.790Z,100785.91
2023-01-04T06:23:37.864Z,100772.84
2023-01-04T06:27:42.359Z,100789.69
2023-01-04T06:31:45.862Z,100777.03
2023-01-04T06:35:55.076Z,100800.63
2023-01-04T06:39:58.405Z,100769.03
2023-01-04T06:44:03.749Z,100795.78
2023-01-04T06:48:09.449Z,100781.66
2023-01-04T06:52:13.039Z,100810.72
2023-01-04T06:56:16.827Z,100776.63
2023-01-04T07:00:22.085Z,100808.00
2023-01-04T07:04:26.162Z,100757.22
2023-01-04T07:08:31.007Z,100770.28
2023-01-04T07:12:34.611Z,100750.06
2023-01-04T07:16:39.571Z,100771.53
2023-01-04T07:20:43.001Z,100751.75
2023-01-04T07:24:46.445Z,100739.94
2023-01-04T07:29:07.905Z,100754.25
2023-01-04T07:33:12.760Z,100747.53
2023-01-04T07:37:16.864Z,100746.88
2023-01-04T07:41:20.352Z,100757.47
2023-01-04T07:45:23.912Z,100759.75
2023-01-04T07:49:28.857Z,100753.84
2023-01-04T07:53:34.280Z,100750.25
2023-01-04T07:57:37.729Z,100724.13
2023-01-04T08:01:42.008Z,100735.28
2023-01-04T08:05:46.921Z,100740.78
2023-01-04T08:09:50.384Z,100738.25
2023-01-04T08:13:53.895Z,100774.50
2023-01-04T08:17:57.882Z,100750.91
2023-01-04T08:22:02.804Z,100766.50
2023-01-04T08:26:07.423Z,100768.41
2023-01-04T08:30:11.544Z,100760.19
2023-01-04T08:34:14.943Z,100750.69
2023-01-04T08:38:58.021Z,100766.91
2023-01-04T08:42:43.197Z,100765.44
2023-01-04T08:46:47.232Z,100767.78
2023-01-04T08:50:50.882Z,100765.69
2023-01-04T08:54:55.929Z,100760.78
2023-01-04T08:58:59.610Z,100751.75
2023-01-04T09:03:03.305Z,100737.41
2023-01-04T09:07:06.971Z,100721.75
2023-01-04T09:11:13.683Z,100718.56
2023-01-04T09:15:17.760Z,100690.28
2023-01-04T09:19:22.429Z,100685.63
2023-01-04T09:23:25.933Z,100694.63
2023-01-04T09:27:32.540Z,100687.88
2023-01-04T09:31:36.028Z,100680.66
2023-01-04T09:35:39.645Z,100695.00
2023-01-04T09:39:43.225Z,100711.03
2023-01-04T09:43:50.427Z,100728.88
2023-01-04T09:47:58.859Z,100741.13
2023-01-04T09:52:05.863Z,100757.97
2023-01-04T09:56:12.255Z,100767.69
2023-01-04T10:00:25.662Z,100756.75
2023-01-04T10:04:41.115Z,100777.44
2023-01-04T10:08:45.401Z,100770.25
2023-01-04T10:13:23.356Z,100786.28
2023-01-04T10:22:15.139Z,100770.47
2023-01-04T10:26:25.594Z,100761.84
2023-01-04T10:30:37.838Z,100778.69
2023-01-04T10:34:47.384Z,100772.81
2023-01-04T10:38:56.825Z,100746.03
2023-01-04T10:43:04.468Z,100737.75
2023-01-04T10:47:12.595Z,100747.91
2023-01-04T10:51:22.982Z,100712.06
2023-01-04T10:55:31.158Z,100716.69
2023-01-04T10:59:44.073Z,100725.59
2023-01-04T11:03:52.995Z,100720.50
2023-01-04T11:08:02.208Z,100710.16
2023-01-04T11:12:10.736Z,100722.19
2023-01-04T11:16:14.451Z,100708.91
2023-01-04T11:20:17.787Z,100702.16
2023-01-04T11:24:31.918Z,100697.75
2023-01-04T11:28:41.117Z,100728.75
2023-01-04T11:32:52.199Z,100707.22
2023-01-04T11:36:55.280Z,100690.97
2023-01-04T11:41:02.747Z,100700.25
2023-01-04T11:45:06.854Z,100701.94
2023-01-04T11:49:20.230Z,100681.28
2023-01-04T11:53:29.098Z,100712.06
2023-01-04T11:57:33.614Z,100686.34
2023-01-04T12:01:38.588Z,100718.16
2023-01-04T12:05:41.928Z,100693.69
2023-01-04T12:09:45.205Z,100690.53
2023-01-04T12:13:49.714Z,100679.59
2023-01-04T12:17:57.960Z,100682.34
2023-01-04T12:22:03.602Z,100718.38
2023-01-04T12:26:08.832Z,100661.25
2023-01-04T12:30:37.625Z,100680.22
2023-01-04T12:34:43.206Z,100646.28
2023-01-04T12:39:29.476Z,100690.97
2023-01-04T12:43:44.721Z,100663.09
2023-01-04T12:48:10.689Z,100647.06
2023-01-04T12:53:10.030Z,100669.41
2023-01-04T12:57:24.973Z,100652.09
2023-01-04T13:01:29.325Z,100677.38
2023-01-04T13:10:02.514Z,100658.81
2023-01-04T13:14:11.021Z,100683.22
2023-01-04T13:18:34.801Z,100617.81
2023-01-04T13:22:39.871Z,100622.19
2023-01-04T13:26:46.113Z,100638.81
2023-01-04T13:30:49.463Z,100614.31
2023-01-04T13:34:55.806Z,100635.91
2023-01-04T13:39:00.344Z,100618.19
2023-01-04T13:43:22.486Z,100616.50
2023-01-04T13:47:26.054Z,100638.03
2023-01-04T13:51:36.136Z,100614.41
2023-01-04T13:55:41.281Z,100596.88
2023-01-04T13:59:44.532Z,100612.50
2023-01-04T14:03:50.546Z,100609.31
2023-01-04T14:07:53.662Z,100603.59
2023-01-04T14:12:07.434Z,100610.56
2023-01-04T14:16:14.524Z,100607.13
2023-01-04T14:20:35.007Z,100636.00
2023-01-04T14:29:22.905Z,100614.22
2023-01-04T14:33:31.740Z,100624.47
2023-01-04T14:37:35.928Z,100599.97
2023-01-04T14:41:41.652Z,100624.47
2023-01-04T14:45:46.374Z,100648.91
2023-01-04T14:49:49.681Z,100628.63
2023-01-04T14:53:52.860Z,100618.03
2023-01-04T14:57:55.958Z,100607.84
2023-01-04T15:02:00.632Z,100595.41
2023-01-04T15:06:04.554Z,100606.94
2023-01-04T15:10:22.275Z,100597.13
2023-01-04T15:14:25.665Z,100582.69
2023-01-04T15:18:30.174Z,100579.28
2023-01-04T15:22:33.316Z,100576.75
2023-01-04T15:26:36.425Z,100614.69
2023-01-04T15:30:42.490Z,100584.25
2023-01-04T15:34:49.654Z,100586.16
2023-01-04T15:38:55.314Z,100581.75
2023-01-04T15:43:01.283Z,100577.31
2023-01-04T15:47:04.704Z,100590.25
2023-01-04T15:51:10.450Z,100587.34
2023-01-04T15:55:14.720Z,100590.94
2023-01-04T15:59:18.492Z,100606.25
2023-01-04T16:03:21.581Z,100618.56
2023-01-04T16:07:28.606Z,100619.41
2023-01-04T16:11:36.420Z,100613.69
2023-01-04T16:15:39.614Z,100629.09
2023-01-04T16:19:42.709Z,100623.59
2023-01-04T16:23:51.038Z,100614.47
2023-01-04T16:27:54.110Z,100637.03
2023-01-04T16:31:58.981Z,100613.72
2023-01-04T16:36:04.324Z,100628.50
2023-01-04T16:40:10.288Z,100611.66
2023-01-04T16:44:14.560Z,100610.84
2023-01-04T16:48:18.786Z,100604.13
2023-01-04T16:52:22.069Z,100610.06
2023-01-04T16:56:26.638Z,100596.53
2023-01-04T17:00:29.747Z,100602.44
2023-01-04T17:04:32.863Z,100539.91
2023-01-04T17:08:36.053Z,100590.59
2023-01-04T17:12:49.058Z,100593.13
2023-01-04T17:16:53.088Z,100579.94
2023-01-04T17:21:16.912Z,100579.09
2023-01-04T17:25:21.567Z,100582.00
2023-01-04T17:29:26.048Z,100556.03
2023-01-04T17:33:29.182Z,100530.91
2023-01-04T17:37:32.306Z,100527.56
2023-01-04T17:41:36.195Z,100529.94
2023-01-04T17:45:40.668Z,100530.63
2023-01-04T17:49:43.850Z,100542.13
2023-01-04T17:53:47.848Z,100568.25
2023-01-04T17:57:50.977Z,100586.13
2023-01-04T18:01:55.543Z,100574.81
2023-01-04T18:06:24.452Z,100569.94
2023-01-04T18:10:41.318Z,100596.31
2023-01-04T18:14:44.929Z,100569.75
2023-01-04T18:18:49.550Z,100562.97
2023-01-04T18:22:52.666Z,100587.66
2023-01-04T18:27:20.873Z,100579.44
2023-01-04T18:31:20.670Z,100574.34
2023-01-04T18:35:25.218Z,100595.41
2023-01-04T18:39:28.319Z,100621.13
2023-01-04T18:43:31.539Z,100622.19
2023-01-04T18:47:34.710Z,100614.41
2023-01-04T18:51:39.193Z,100618.00
2023-01-04T18:55:42.632Z,100634.97
2023-01-04T18:59:49.998Z,100599.06
2023-01-04T19:03:53.195Z,100600.56
2023-01-04T19:07:57.744Z,100616.59
2023-01-04T19:12:00.954Z,100621.22
2023-01-04T19:16:04.095Z,100605.22
2023-01-04T19:20:08.196Z,100587.13
2023-01-04T19:24:12.699Z,100591.38
2023-01-04T19:28:15.842Z,100605.47
2023-01-04T19:32:21.163Z,100604.75
2023-01-04T19:36:24.257Z,100599.88
2023-01-04T19:40:28.728Z,100606.41
2023-01-04T19:44:31.821Z,100604.72
2023-01-04T19:48:35.171Z,100589.63
2023-01-04T19:52:39.185Z,100633.22
2023-01-04T19:56:43.665Z,100614.84
2023-01-04T20:00:54.319Z,100612.09
2023-01-04T20:05:02.334Z,100651.94
2023-01-04T20:09:05.502Z,100617.97
2023-01-04T20:13:10.010Z,100623.06
2023-01-04T20:17:13.164Z,100610.25
2023-01-04T20:21:16.342Z,100623.13
2023-01-04T20:25:19.524Z,100614.22
2023-01-04T20:29:24.012Z,100596.25
2023-01-04T20:33:27.092Z,100634.84
2023-01-04T20:37:30.313Z,100612.72
2023-01-04T20:41:33.600Z,100622.44
2023-01-04T20:45:42.411Z,100625.03
2023-01-04T20:49:47.598Z,100622.72
2023-01-04T20:53:51.655Z,100623.16
2023-01-04T20:57:54.774Z,100647.22
2023-01-04T21:01:59.377Z,100656.97
2023-01-04T21:06:04.175Z,100659.88
2023-01-04T21:10:07.583Z,100653.41
2023-01-04T21:14:12.011Z,100651.66
2023-01-04T21:18:16.684Z,100651.47
2023-01-04T21:22:22.390Z,100643.41
2023-01-04T21:26:25.677Z,100658.19
2023-01-04T21:30:28.834Z,100646.97
2023-01-04T21:34:33.623Z,100644.66
2023-01-04T21:38:36.753Z,100642.09
2023-01-04T21:42:40.099Z,100653.06
2023-01-04T21:46:43.249Z,100623.00
2023-01-04T21:50:47.728Z,100623.44
2023-01-04T21:54:51.912Z,100637.41
2023-01-04T21:58:55.045Z,100620.16
2023-01-04T22:02:58.240Z,100645.91
2023-01-04T22:07:02.782Z,100631.13
2023-01-04T22:11:07.784Z,100629.44
2023-01-04T22:15:11.737Z,100664.28
2023-01-04T22:19:15.574Z,100641.31
2023-01-04T22:23:20.170Z,100639.25
2023-01-04T22:27:23.232Z,100643.69
2023-01-04T22:31:26.487Z,100670.06
2023-01-04T22:35:29.614Z,100643.91
2023-01-04T22:39:34.053Z,100649.78
2023-01-04T22:43:37.807Z,100676.78
2023-01-04T22:47:41.188Z,100657.41
2023-01-04T22:51:44.465Z,100666.69
2023-01-04T23:00:13.243Z,100675.72
2023-01-04T23:04:18.532Z,100675.53
2023-01-04T23:08:21.622Z,100678.41
2023-01-04T23:12:26.379Z,100662.81
2023-01-04T23:16:32.983Z,100674.66
2023-01-04T23:20:36.731Z,100662.00
2023-01-04T23:24:39.862Z,100671.31
2023-01-04T23:28:45.159Z,100686.09
2023-01-04T23:32:48.293Z,100692.19
2023-01-04T23:36:51.364Z,100688.22
2023-01-04T23:40:54.432Z,100683.78
2023-01-04T23:44:58.847Z,100684.47
2023-01-04T23:49:02.008Z,100701.75
2023-01-04T23:53:05.145Z,100711.47
2023-01-04T23:57:08.391Z,100686.78
